Portada
METAR-TAF:

METAR-TAF

Aeropuertos :

Keetmanshoop, Namibia

latitud: 26-32S, longitud: 018-07E, altitud: 1067 m

Observación

El informe se hizo hace 1 hora y 12 minutos, a las 02:00 UTC
Viento 3 kt del suroeste
Temperatura 24°C
Humedad 47%
Presión 1017 hPa

METAR: FYKT 020200Z AUTO 22003KT //// // ////// 24/12 Q1017

Hora: 05:12 (03:12 UTC)

Pronóstico

El informe se hizo hace 11 horas y 12 minutos, a las 16:00 UTC
Pronóstico válido del 01 a las 18 UTC al 02 a las 18 UTC
Viento 5 kt del norte-noroeste
Visibilidad 10 km o más
Nubes dispersas a una altura de 5000 ft
Evolucionando progresivamente
del 01 a las 20 UTC al 01 a las 22 UTC
Viento kt del norte
Visibilidad 10 km o más
sin nubes por debajo de 1500 m y sin presencia de cumulonimbus.

TAF: FYKT 011600Z 0118/0218 33005KT 9999 SCT050 BECMG 0120/0122 00000KT CAVOK

Observaciones y pronósticos meteorológicos de más de 4000 aeropuertos (mensajes METAR y TAF).

Los puntos amarillos y rojos representan las estaciones disponibles.

Ponga el ratón en el punto deseado para ver el nombre de la estación.

Haga clic para ver las observaciones y los pronósticos meteorológicos.

Para cambiar el mapa : haga clic en los botones verdes con una cruz de color negro para hacer un zoom, en el botón verde con un guión para alejar o en las flechas verdes para mapas adyacentes.


METAR-TAF: